Anshan, China
Current Conditions -  °F | °C
As of 1:00 PM on Thursday 27 Nov 2014 (Local Time) from ZYTX Reporting Station
Clear Clear  
Wind Chill:   Ceiling: Unl
Heat Index:   Visibility: 6mi
Dew Point: -19°   Wind: 13mph
Humidity: 17%   Direction: 360°N
Pressure: 30.3"   Gusts: NA
Location:  41.12°N, 122.95°E
Report Text: ZYTX 270500Z 36006MPS CAVOK 04/M19 Q1026 NOSIG
Loading
Personal Weather Stations






























Interactive Weather Map New forecast layout! Learn more

10-Day Weather Forecast

Advertisements
Track Severe Weather on mobile